Guadalupe, Texas
Current Conditions -  °F | °C
As of 12:51 PM on Thursday 30 Oct 2014 (Local Time) from KVCT Reporting Station
Few Clouds Few Clouds  
Wind Chill: 81°   Ceiling: Unl
Heat Index: 83°   Visibility: 10mi
Dew Point: 65°   Wind: 3mph
Humidity: 58%   Direction: NA
Pressure: 30.11"   Gusts: NA
Location:  28.7094°N, 97.0351°W
Report Text: KVCT 301751Z VRB03KT 10SM FEW026 27/18 A3011 RMK AO2 SLP194 T02720183 10278 20189 58006
Loading
Personal Weather Stations






























Interactive Weather Map
Tropical Storm Tracking
New forecast layout! Learn more

10-Day Weather Forecast

Advertisements
Track Severe Weather on mobile